Time;durP1;ratioP1;P1;durP2;ratioP2;P2;SDS_P1;SDS_P2;PMS_P1;PMS_P2;Temp;Humidity;BMP_temperature;BMP_pressure;BME280_temperature;BME280_humidity;BME280_pressure;Samples;Min_cycle;Max_cycle;Signal;HPM_P1;HPM_P2
2022/10/17 00:00:24;;;;;;;23.77;14.52;;;;;;;;;;5014474;28;20025;-64
2022/10/17 00:02:50;;;;;;;21.80;15.10;;;;;;;;;;5014083;28;20408;-63
2022/10/17 00:05:16;;;;;;;20.52;14.13;;;;;;;;;;5013871;28;20108;-63
2022/10/17 00:07:42;;;;;;;24.50;15.55;;;;;;;;;;5031830;28;20040;-63
2022/10/17 00:10:08;;;;;;;20.10;14.77;;;;;;;;;;5031945;28;20025;-63
2022/10/17 00:12:34;;;;;;;23.42;15.10;;;;;;;;;;5031854;28;20045;-63
2022/10/17 00:15:02;;;;;;;26.63;15.13;;;;;;;;;;5031879;28;20025;-63
2022/10/17 00:17:28;;;;;;;23.05;15.23;;;;;;;;;;5032031;28;20056;-62
2022/10/17 00:19:54;;;;;;;22.75;15.57;;;;;;;;;;5031801;28;20060;-63
2022/10/17 00:22:20;;;;;;;23.63;15.95;;;;;;;;;;5014244;28;20066;-62
2022/10/17 00:24:46;;;;;;;23.65;16.23;;;;;;;;;;5014103;28;20354;-62
2022/10/17 00:27:12;;;;;;;22.48;15.70;;;;;;;;;;5031792;28;20021;-63
2022/10/17 00:29:38;;;;;;;25.38;15.07;;;;;;;;;;5031711;28;20562;-61
2022/10/17 00:32:04;;;;;;;22.55;15.57;;;;;;;;;;5031406;28;20029;-63
2022/10/17 00:34:30;;;;;;;21.67;14.75;;;;;;;;;;5031000;28;20068;-63
2022/10/17 00:36:56;;;;;;;21.40;15.30;;;;;;;;;;5030929;28;20068;-64
2022/10/17 00:39:22;;;;;;;25.05;16.02;;;;;;;;;;5031002;28;20069;-64
2022/10/17 00:41:48;;;;;;;21.00;14.95;;;;;;;;;;5031084;28;20547;-64
2022/10/17 00:44:29;;;;;;;25.05;16.65;;;;;;;;;;5013099;28;20032;-63
2022/10/17 00:46:56;;;;;;;22.55;14.88;;;;;;;;;;5013345;28;20433;-63
2022/10/17 00:49:24;;;;;;;23.38;15.70;;;;;;;;;;5031035;28;20044;-63
2022/10/17 00:51:58;;;;;;;22.25;15.32;;;;;;;;;;5031049;28;20022;-63
2022/10/17 00:54:28;;;;;;;22.50;15.77;;;;;;;;;;5030613;28;20036;-61
2022/10/17 00:56:55;;;;;;;22.85;15.95;;;;;;;;;;5029864;28;20061;-62
2022/10/17 00:59:21;;;;;;;23.50;15.35;;;;;;;;;;5012560;28;20116;-61
2022/10/17 01:01:59;;;;;;;24.85;16.52;;;;;;;;;;5013001;28;20033;-62
2022/10/17 01:04:25;;;;;;;24.57;15.90;;;;;;;;;;5030540;28;20018;-61
2022/10/17 01:06:51;;;;;;;23.20;16.50;;;;;;;;;;5012686;28;20017;-62
2022/10/17 01:09:17;;;;;;;24.52;15.68;;;;;;;;;;5030596;28;20536;-62
2022/10/17 01:11:59;;;;;;;25.20;16.55;;;;;;;;;;5030590;28;20061;-62
2022/10/17 01:14:28;;;;;;;22.20;16.13;;;;;;;;;;5030351;28;20493;-63
2022/10/17 01:16:58;;;;;;;23.45;15.98;;;;;;;;;;5030343;28;20036;-62
2022/10/17 01:19:43;;;;;;;23.08;16.73;;;;;;;;;;5012460;28;20120;-63
2022/10/17 01:22:15;;;;;;;21.60;16.20;;;;;;;;;;5030380;28;20029;-61
2022/10/17 01:24:47;;;;;;;23.08;16.65;;;;;;;;;;5030220;28;20117;-61
2022/10/17 01:27:16;;;;;;;22.95;17.45;;;;;;;;;;5012637;28;20025;-61
2022/10/17 01:30:01;;;;;;;24.88;17.17;;;;;;;;;;5030314;28;20026;-61
2022/10/17 01:32:43;;;;;;;22.48;16.48;;;;;;;;;;5030756;28;20116;-62
2022/10/17 01:35:30;;;;;;;25.63;17.35;;;;;;;;;;5012196;28;20091;-63
2022/10/17 01:38:04;;;;;;;23.30;16.33;;;;;;;;;;5030300;28;20027;-63
2022/10/17 01:40:35;;;;;;;24.50;16.55;;;;;;;;;;5030168;28;20431;-62
2022/10/17 01:43:12;;;;;;;23.15;16.60;;;;;;;;;;5012428;28;20076;-62
2022/10/17 01:45:44;;;;;;;23.08;16.00;;;;;;;;;;5030130;28;20033;-62
2022/10/17 01:48:19;;;;;;;24.25;17.30;;;;;;;;;;5030194;28;20121;-61
2022/10/17 01:50:48;;;;;;;24.25;16.55;;;;;;;;;;5012594;28;20029;-62
2022/10/17 01:53:17;;;;;;;22.77;15.50;;;;;;;;;;5029834;28;20037;-62
2022/10/17 01:55:45;;;;;;;22.77;15.88;;;;;;;;;;5029954;28;20545;-63
2022/10/17 01:58:18;;;;;;;22.33;16.07;;;;;;;;;;5012324;28;20032;-61
2022/10/17 02:00:44;;;;;;;23.80;15.73;;;;;;;;;;5030063;28;20760;-61
2022/10/17 02:03:13;;;;;;;22.52;16.38;;;;;;;;;;5029770;28;20029;-62
2022/10/17 02:05:40;;;;;;;21.95;15.68;;;;;;;;;;5029815;28;20084;-62
2022/10/17 02:08:06;;;;;;;23.10;16.17;;;;;;;;;;5012247;28;20461;-62
2022/10/17 02:10:32;;;;;;;22.15;15.80;;;;;;;;;;5013000;28;20501;-62
2022/10/17 02:13:17;;;;;;;23.02;16.08;;;;;;;;;;5015986;28;20061;-62
2022/10/17 02:15:43;;;;;;;22.08;16.05;;;;;;;;;;5033479;28;20025;-61
2022/10/17 02:18:27;;;;;;;24.27;16.20;;;;;;;;;;5033586;28;20035;-63
2022/10/17 02:20:53;;;;;;;23.95;16.98;;;;;;;;;;5033814;28;20026;-62
2022/10/17 02:23:32;;;;;;;22.30;16.23;;;;;;;;;;5033276;28;20029;-63
2022/10/17 02:26:16;;;;;;;25.13;16.35;;;;;;;;;;5015586;28;20028;-62
2022/10/17 02:28:46;;;;;;;22.27;16.38;;;;;;;;;;5015610;28;20029;-61
2022/10/17 02:31:21;;;;;;;25.05;16.75;;;;;;;;;;5033249;28;20033;-62
2022/10/17 02:33:52;;;;;;;22.83;17.17;;;;;;;;;;5033003;28;20037;-63
2022/10/17 02:36:20;;;;;;;22.35;16.58;;;;;;;;;;5033058;28;20513;-62
2022/10/17 02:38:46;;;;;;;23.60;17.10;;;;;;;;;;5033137;28;20064;-61
2022/10/17 02:41:15;;;;;;;23.58;16.70;;;;;;;;;;5033104;28;20101;-62
2022/10/17 02:43:44;;;;;;;24.83;16.20;;;;;;;;;;5032881;28;20025;-63
2022/10/17 02:46:10;;;;;;;23.95;16.42;;;;;;;;;;5032857;28;20018;-62
2022/10/17 02:48:38;;;;;;;25.85;16.10;;;;;;;;;;5033020;28;20021;-63
2022/10/17 02:51:07;;;;;;;21.67;16.47;;;;;;;;;;5032991;28;20033;-62
2022/10/17 02:53:47;;;;;;;24.55;16.50;;;;;;;;;;5032649;28;20040;-62
2022/10/17 02:56:16;;;;;;;22.20;16.35;;;;;;;;;;5032814;28;20022;-64
2022/10/17 02:58:42;;;;;;;25.40;16.55;;;;;;;;;;5032789;28;20490;-63
2022/10/17 03:01:08;;;;;;;21.52;16.52;;;;;;;;;;5014840;28;20025;-63
2022/10/17 03:03:34;;;;;;;22.52;16.02;;;;;;;;;;5032376;28;20432;-62
2022/10/17 03:06:00;;;;;;;26.52;17.27;;;;;;;;;;5032636;28;20029;-62
2022/10/17 03:08:26;;;;;;;22.92;16.25;;;;;;;;;;5032686;28;20358;-63
2022/10/17 03:10:52;;;;;;;24.92;16.30;;;;;;;;;;5032590;28;20057;-63
2022/10/17 03:13:18;;;;;;;26.90;17.08;;;;;;;;;;5014549;28;20426;-62
2022/10/17 03:15:45;;;;;;;23.95;15.88;;;;;;;;;;5032419;28;20064;-63
2022/10/17 03:18:11;;;;;;;26.30;16.58;;;;;;;;;;5032356;28;20401;-64
2022/10/17 03:20:37;;;;;;;23.88;16.08;;;;;;;;;;5032320;28;20021;-62
2022/10/17 03:23:03;;;;;;;23.55;16.20;;;;;;;;;;5031720;28;20025;-62
2022/10/17 03:25:29;;;;;;;22.42;15.63;;;;;;;;;;5032593;28;20030;-62
2022/10/17 03:27:57;;;;;;;22.02;15.75;;;;;;;;;;5032634;28;20021;-62
2022/10/17 03:30:23;;;;;;;23.50;16.98;;;;;;;;;;5032304;28;20092;-63
2022/10/17 03:32:49;;;;;;;21.90;16.13;;;;;;;;;;5032082;28;20048;-62
2022/10/17 03:35:15;;;;;;;23.05;16.45;;;;;;;;;;5014105;28;20029;-63
2022/10/17 03:37:41;;;;;;;21.98;16.65;;;;;;;;;;5032275;28;20538;-63
2022/10/17 03:40:07;;;;;;;21.25;15.80;;;;;;;;;;5032143;28;20022;-64
2022/10/17 03:42:33;;;;;;;24.10;16.70;;;;;;;;;;5031983;28;20021;-63
2022/10/17 03:44:59;;;;;;;24.35;17.45;;;;;;;;;;5031258;28;20376;-61
2022/10/17 03:47:25;;;;;;;24.23;17.10;;;;;;;;;;5014375;28;20013;-62
2022/10/17 03:49:52;;;;;;;24.00;16.77;;;;;;;;;;5031722;28;20072;-62
2022/10/17 03:52:18;;;;;;;24.52;17.20;;;;;;;;;;5031793;28;20021;-62
2022/10/17 03:54:44;;;;;;;23.67;16.95;;;;;;;;;;5031546;28;20017;-62
2022/10/17 03:57:10;;;;;;;23.55;15.93;;;;;;;;;;5031378;28;20055;-63
2022/10/17 03:59:36;;;;;;;23.65;16.52;;;;;;;;;;5013980;28;20108;-62
2022/10/17 04:02:02;;;;;;;23.98;16.67;;;;;;;;;;5031485;28;20025;-62
2022/10/17 04:04:28;;;;;;;25.15;17.33;;;;;;;;;;5031662;28;20444;-63
2022/10/17 04:06:54;;;;;;;22.48;16.05;;;;;;;;;;5031895;28;20069;-63
2022/10/17 04:09:20;;;;;;;22.50;16.85;;;;;;;;;;5032352;28;20021;-62
2022/10/17 04:11:46;;;;;;;22.55;16.55;;;;;;;;;;5033946;28;20036;-61
2022/10/17 04:14:13;;;;;;;22.35;17.30;;;;;;;;;;5050782;28;20075;-62
2022/10/17 04:16:39;;;;;;;24.85;17.67;;;;;;;;;;5051019;28;20021;-63
2022/10/17 04:19:05;;;;;;;24.02;17.50;;;;;;;;;;5033140;28;20122;-63
2022/10/17 04:21:31;;;;;;;26.50;16.95;;;;;;;;;;5050918;28;20157;-63
2022/10/17 04:23:58;;;;;;;25.60;17.33;;;;;;;;;;5051013;28;20052;-63
2022/10/17 04:26:24;;;;;;;24.85;16.42;;;;;;;;;;5050694;28;20029;-63
2022/10/17 04:28:50;;;;;;;24.17;16.50;;;;;;;;;;5050722;28;20028;-63
2022/10/17 04:31:17;;;;;;;25.02;17.60;;;;;;;;;;5050759;28;20021;-63
2022/10/17 04:33:45;;;;;;;24.15;17.17;;;;;;;;;;5049880;28;20460;-61
2022/10/17 04:36:13;;;;;;;22.83;17.70;;;;;;;;;;5079661;22;20068;-61
2022/10/17 04:38:39;;;;;;;22.02;16.45;;;;;;;;;;5054645;28;20072;-59
2022/10/17 04:41:06;;;;;;;23.27;17.38;;;;;;;;;;5072638;28;20021;-60
2022/10/17 04:43:33;;;;;;;23.02;17.08;;;;;;;;;;5053777;28;20028;-62
2022/10/17 04:46:00;;;;;;;26.05;17.33;;;;;;;;;;5050693;28;20021;-57
2022/10/17 04:48:26;;;;;;;23.33;17.30;;;;;;;;;;5051257;28;20488;-60
2022/10/17 04:50:56;;;;;;;23.95;16.92;;;;;;;;;;5052355;28;20128;-60
2022/10/17 04:53:22;;;;;;;21.63;16.55;;;;;;;;;;5051523;28;20087;-60
2022/10/17 04:55:48;;;;;;;22.65;17.02;;;;;;;;;;5051994;28;20041;-62
2022/10/17 04:58:14;;;;;;;23.75;18.55;;;;;;;;;;5051894;28;20163;-62
2022/10/17 05:00:40;;;;;;;24.42;16.90;;;;;;;;;;5050507;28;20186;-60
2022/10/17 05:03:06;;;;;;;21.95;16.92;;;;;;;;;;5050873;28;20049;-63
2022/10/17 05:05:33;;;;;;;24.23;17.85;;;;;;;;;;5051690;28;20579;-63
2022/10/17 05:07:59;;;;;;;23.08;18.25;;;;;;;;;;5051723;28;20029;-58
2022/10/17 05:10:25;;;;;;;23.80;17.88;;;;;;;;;;5052181;28;20052;-60
2022/10/17 05:12:51;;;;;;;24.65;16.77;;;;;;;;;;5059268;28;20050;-60
2022/10/17 05:15:17;;;;;;;23.05;17.27;;;;;;;;;;5072017;28;20032;-57
2022/10/17 05:17:43;;;;;;;22.83;18.27;;;;;;;;;;5072297;28;20089;-63
2022/10/17 05:20:09;;;;;;;30.67;17.67;;;;;;;;;;5071219;28;20488;-61
2022/10/17 05:22:35;;;;;;;22.30;17.70;;;;;;;;;;5071628;28;20024;-61
2022/10/17 05:25:01;;;;;;;23.35;17.48;;;;;;;;;;5070427;28;20658;-60
2022/10/17 05:27:27;;;;;;;23.98;18.63;;;;;;;;;;5071608;28;20059;-61
2022/10/17 05:29:53;;;;;;;23.60;17.15;;;;;;;;;;5071375;28;20028;-58
2022/10/17 05:32:19;;;;;;;27.17;17.65;;;;;;;;;;5070517;28;20522;-57
2022/10/17 05:34:45;;;;;;;23.42;18.05;;;;;;;;;;5071300;28;20024;-63
2022/10/17 05:37:11;;;;;;;27.83;20.88;;;;;;;;;;5071556;28;20032;-62
2022/10/17 05:39:37;;;;;;;23.67;18.30;;;;;;;;;;5069870;28;20457;-61
2022/10/17 05:42:03;;;;;;;23.98;17.58;;;;;;;;;;5071283;28;20020;-57
2022/10/17 05:44:29;;;;;;;24.35;17.65;;;;;;;;;;5070626;28;20455;-59
2022/10/17 05:46:55;;;;;;;23.02;17.98;;;;;;;;;;5075265;28;20088;-61
2022/10/17 05:49:21;;;;;;;25.35;18.55;;;;;;;;;;5074330;28;20025;-59
2022/10/17 05:51:47;;;;;;;25.75;18.55;;;;;;;;;;5075211;28;20480;-59
2022/10/17 05:54:13;;;;;;;23.77;18.02;;;;;;;;;;5075572;28;20115;-60
2022/10/17 05:56:39;;;;;;;21.90;17.45;;;;;;;;;;5075169;28;20108;-62
2022/10/17 05:59:05;;;;;;;23.63;16.90;;;;;;;;;;5075679;28;20024;-60
2022/10/17 06:01:31;;;;;;;30.92;16.90;;;;;;;;;;5074067;28;20074;-61
2022/10/17 06:03:57;;;;;;;22.48;16.30;;;;;;;;;;5075069;28;20025;-62
2022/10/17 06:06:23;;;;;;;22.50;15.77;;;;;;;;;;5074980;28;20024;-60
2022/10/17 06:08:49;;;;;;;23.35;15.77;;;;;;;;;;5075475;28;20392;-61
2022/10/17 06:11:15;;;;;;;22.95;15.70;;;;;;;;;;5073534;28;20028;-60
2022/10/17 06:13:41;;;;;;;21.80;15.05;;;;;;;;;;5060921;28;20565;-60
2022/10/17 06:16:08;;;;;;;20.90;14.88;;;;;;;;;;5054214;28;20503;-62
2022/10/17 06:18:34;;;;;;;21.95;14.60;;;;;;;;;;5053548;28;20408;-62
2022/10/17 06:21:10;;;;;;;21.00;13.90;;;;;;;;;;5053370;28;20027;-60
2022/10/17 06:23:36;;;;;;;23.38;14.80;;;;;;;;;;5055376;28;20025;-62
2022/10/17 06:26:04;;;;;;;22.20;15.65;;;;;;;;;;5054580;28;20017;-61
2022/10/17 06:28:30;;;;;;;26.88;15.68;;;;;;;;;;5054644;28;20704;-56
2022/10/17 06:30:56;;;;;;;21.10;15.25;;;;;;;;;;5054747;28;20080;-62
2022/10/17 06:33:22;;;;;;;24.48;14.43;;;;;;;;;;5054392;28;20028;-61
2022/10/17 06:35:55;;;;;;;21.02;14.20;;;;;;;;;;5053089;28;20028;-59
2022/10/17 06:38:21;;;;;;;21.50;14.43;;;;;;;;;;5053071;28;20480;-58
2022/10/17 06:40:47;;;;;;;20.65;13.55;;;;;;;;;;5054552;28;20021;-61
2022/10/17 06:43:13;;;;;;;20.90;13.90;;;;;;;;;;5054506;28;20025;-61
2022/10/17 06:45:39;;;;;;;18.88;13.63;;;;;;;;;;5055597;28;20028;-60
2022/10/17 06:48:06;;;;;;;22.02;13.45;;;;;;;;;;5056217;28;20093;-61
2022/10/17 06:50:32;;;;;;;21.98;13.65;;;;;;;;;;5054479;28;20025;-54
2022/10/17 06:52:58;;;;;;;20.65;13.82;;;;;;;;;;5054297;28;20024;-63
2022/10/17 06:55:24;;;;;;;21.38;12.82;;;;;;;;;;5053968;28;20028;-60
2022/10/17 06:57:51;;;;;;;21.50;13.20;;;;;;;;;;5051904;28;20035;-61
2022/10/17 07:00:17;;;;;;;19.67;13.63;;;;;;;;;;5054679;28;20500;-61
2022/10/17 07:02:43;;;;;;;20.30;13.07;;;;;;;;;;5052990;28;20021;-62
2022/10/17 07:05:09;;;;;;;20.10;12.40;;;;;;;;;;5053649;28;20447;-60
2022/10/17 07:07:35;;;;;;;19.35;12.77;;;;;;;;;;5053623;28;20033;-61
2022/10/17 07:10:03;;;;;;;19.65;13.07;;;;;;;;;;5052953;28;20029;-61
2022/10/17 07:12:29;;;;;;;19.70;13.05;;;;;;;;;;5057748;28;20026;-62
2022/10/17 07:14:55;;;;;;;23.25;12.85;;;;;;;;;;5072208;28;20024;-64
2022/10/17 07:17:21;;;;;;;18.75;12.20;;;;;;;;;;5074147;28;20028;-64
2022/10/17 07:19:47;;;;;;;20.08;12.75;;;;;;;;;;5073860;28;20032;-64
2022/10/17 07:22:13;;;;;;;19.90;12.23;;;;;;;;;;5073642;28;20043;-60
2022/10/17 07:24:39;;;;;;;21.30;12.90;;;;;;;;;;5070758;28;20017;-64
2022/10/17 07:27:05;;;;;;;20.60;12.63;;;;;;;;;;5073414;28;20549;-63
2022/10/17 07:29:31;;;;;;;18.33;12.00;;;;;;;;;;5072469;28;20032;-65
2022/10/17 07:31:57;;;;;;;19.58;13.10;;;;;;;;;;5072636;28;20024;-64
2022/10/17 07:34:26;;;;;;;19.50;11.35;;;;;;;;;;5069185;28;20467;-65
2022/10/17 07:36:52;;;;;;;;;;;;;;;;;;5063728;28;20029;-71
2022/10/17 07:39:18;;;;;;;17.45;11.57;;;;;;;;;;5064352;28;19908;-51
2022/10/17 07:41:44;;;;;;;18.33;11.70;;;;;;;;;;5062331;28;20017;-52
2022/10/17 07:44:10;;;;;;;17.58;11.77;;;;;;;;;;5053493;28;20024;-61
2022/10/17 07:46:36;;;;;;;18.27;11.73;;;;;;;;;;5054101;28;20362;-55
2022/10/17 07:49:02;;;;;;;23.88;12.30;;;;;;;;;;5055472;28;20452;-57
2022/10/17 07:51:28;;;;;;;18.73;11.25;;;;;;;;;;5062054;28;20111;-58
2022/10/17 07:53:54;;;;;;;19.10;11.50;;;;;;;;;;5053494;28;20099;-52
2022/10/17 07:56:23;;;;;;;18.90;10.75;;;;;;;;;;5073395;28;20055;-61
2022/10/17 07:58:49;;;;;;;;;;;;;;;;;;5074036;28;20048;-58
2022/10/17 08:01:16;;;;;;;21.27;11.40;;;;;;;;;;5075013;28;19927;-65
2022/10/17 08:03:43;;;;;;;19.88;11.27;;;;;;;;;;5075148;28;20021;-69
2022/10/17 08:06:09;;;;;;;20.48;11.68;;;;;;;;;;5073458;28;20119;-67
2022/10/17 08:08:35;;;;;;;22.60;11.95;;;;;;;;;;5074328;28;20089;-68
2022/10/17 08:11:03;;;;;;;18.48;11.20;;;;;;;;;;5074526;28;20028;-67
2022/10/17 08:13:29;;;;;;;18.40;11.27;;;;;;;;;;5074076;28;20021;-67
2022/10/17 08:15:58;;;;;;;20.25;11.45;;;;;;;;;;5073297;28;20027;-66
2022/10/17 08:18:24;;;;;;;18.67;11.90;;;;;;;;;;5074759;28;20021;-67
2022/10/17 08:20:50;;;;;;;20.02;12.30;;;;;;;;;;5057008;28;20099;-66
2022/10/17 08:23:16;;;;;;;17.65;11.20;;;;;;;;;;5060947;28;20060;-66
2022/10/17 08:25:42;;;;;;;18.40;10.98;;;;;;;;;;5053625;28;20028;-66
2022/10/17 08:28:08;;;;;;;19.88;11.13;;;;;;;;;;5053021;28;20119;-66
2022/10/17 08:30:34;;;;;;;19.35;11.48;;;;;;;;;;5054647;28;20071;-67
2022/10/17 08:33:00;;;;;;;18.58;10.40;;;;;;;;;;5054039;28;20036;-67
2022/10/17 08:35:26;;;;;;;17.83;10.93;;;;;;;;;;5052614;28;20021;-66
2022/10/17 08:37:52;;;;;;;20.52;10.35;;;;;;;;;;5052222;28;20047;-67
2022/10/17 08:40:20;;;;;;;18.38;10.25;;;;;;;;;;5054796;28;20044;-66
2022/10/17 08:43:01;;;;;;;18.30;12.00;;;;;;;;;;5051590;28;20469;-66
2022/10/17 08:45:46;;;;;;;18.83;10.48;;;;;;;;;;5052456;28;20112;-65
2022/10/17 08:48:17;;;;;;;16.77;10.00;;;;;;;;;;5051710;28;20029;-62
2022/10/17 08:50:52;;;;;;;16.95;10.55;;;;;;;;;;5052639;28;20028;-67
2022/10/17 08:53:18;;;;;;;18.60;10.98;;;;;;;;;;5052298;28;20037;-67
2022/10/17 08:55:54;;;;;;;20.05;10.52;;;;;;;;;;5052479;28;20143;-68
2022/10/17 08:58:20;;;;;;;18.10;10.32;;;;;;;;;;5052501;28;20028;-68
2022/10/17 09:01:06;;;;;;;16.48;10.25;;;;;;;;;;5050801;28;20035;-67
2022/10/17 09:03:51;;;;;;;17.48;10.63;;;;;;;;;;5039698;28;20132;-66
2022/10/17 09:06:37;;;;;;;16.85;9.90;;;;;;;;;;5050925;28;20021;-66
2022/10/17 09:09:22;;;;;;;16.80;9.63;;;;;;;;;;5051554;28;20404;-66
2022/10/17 09:11:48;;;;;;;17.70;9.90;;;;;;;;;;5052138;28;20029;-65
2022/10/17 09:14:33;;;;;;;19.15;10.05;;;;;;;;;;5070143;28;20036;-66
2022/10/17 09:17:08;;;;;;;17.38;10.23;;;;;;;;;;5071812;28;20029;-67
2022/10/17 09:19:40;;;;;;;20.15;10.30;;;;;;;;;;5071117;28;20024;-65
2022/10/17 09:22:09;;;;;;;21.10;10.52;;;;;;;;;;5073474;28;20135;-66
2022/10/17 09:24:41;;;;;;;20.60;10.52;;;;;;;;;;5071556;28;20641;-66
2022/10/17 09:27:33;;;;;;;20.20;10.52;;;;;;;;;;5070721;28;20408;-66
2022/10/17 09:30:20;;;;;;;17.70;10.02;;;;;;;;;;5066951;28;20174;-66
2022/10/17 09:32:46;;;;;;;18.35;10.35;;;;;;;;;;5072117;28;20496;-68
2022/10/17 09:35:16;;;;;;;20.90;9.63;;;;;;;;;;5070269;28;20119;-67
2022/10/17 09:37:42;;;;;;;16.13;9.48;;;;;;;;;;5070628;28;20493;-67
2022/10/17 09:40:13;;;;;;;16.95;10.38;;;;;;;;;;5071152;28;20025;-68
2022/10/17 09:42:39;;;;;;;17.73;10.05;;;;;;;;;;5071635;28;20511;-67
2022/10/17 09:45:25;;;;;;;17.60;10.32;;;;;;;;;;5070336;28;20020;-64
2022/10/17 09:47:57;;;;;;;19.73;10.80;;;;;;;;;;5071370;28;20357;-64
2022/10/17 09:50:33;;;;;;;16.58;10.48;;;;;;;;;;5071444;28;20109;-65
2022/10/17 09:53:09;;;;;;;19.75;10.50;;;;;;;;;;5070625;28;20481;-66
2022/10/17 09:55:49;;;;;;;16.60;9.77;;;;;;;;;;5071105;28;20108;-67
2022/10/17 09:58:16;;;;;;;19.50;10.60;;;;;;;;;;5063675;28;20392;-65
2022/10/17 10:00:43;;;;;;;21.60;10.80;;;;;;;;;;5051837;28;20578;-66
2022/10/17 10:03:12;;;;;;;19.63;10.43;;;;;;;;;;5060340;28;20031;-67
2022/10/17 10:05:38;;;;;;;17.25;9.63;;;;;;;;;;5070654;28;20266;-68
2022/10/17 10:08:06;;;;;;;19.80;10.10;;;;;;;;;;5072565;28;20468;-65
2022/10/17 10:10:32;;;;;;;19.42;10.57;;;;;;;;;;5069994;28;20035;-68
2022/10/17 10:13:07;;;;;;;15.43;9.57;;;;;;;;;;5061488;28;20451;-64
2022/10/17 10:15:35;;;;;;;18.05;10.75;;;;;;;;;;5061749;28;20511;-65
2022/10/17 10:18:02;;;;;;;20.08;10.82;;;;;;;;;;5063760;28;20476;-65
2022/10/17 10:20:28;;;;;;;18.55;10.05;;;;;;;;;;5059608;28;20085;-67
2022/10/17 10:23:06;;;;;;;18.23;10.27;;;;;;;;;;5059253;28;20021;-66
2022/10/17 10:25:32;;;;;;;19.63;10.55;;;;;;;;;;5059161;28;20499;-64
2022/10/17 10:27:58;;;;;;;18.55;9.85;;;;;;;;;;5060642;28;20033;-64
2022/10/17 10:30:29;;;;;;;17.67;9.23;;;;;;;;;;5054670;28;20021;-65
2022/10/17 10:32:56;;;;;;;17.40;9.57;;;;;;;;;;5050667;28;20033;-64
2022/10/17 10:35:24;;;;;;;15.85;9.30;;;;;;;;;;5051816;28;20021;-65
2022/10/17 10:37:52;;;;;;;17.30;9.40;;;;;;;;;;5071172;23;20055;-63
2022/10/17 10:40:39;;;;;;;17.92;9.65;;;;;;;;;;5051310;28;20033;-62
2022/10/17 10:43:06;;;;;;;17.08;9.35;;;;;;;;;;5029488;28;20525;-62
2022/10/17 10:45:35;;;;;;;19.67;10.20;;;;;;;;;;5051280;28;20033;-61
2022/10/17 10:48:03;;;;;;;21.83;9.73;;;;;;;;;;5052174;28;20013;-62
2022/10/17 10:50:31;;;;;;;16.60;9.30;;;;;;;;;;5051424;28;20032;-61
2022/10/17 10:53:15;;;;;;;22.33;9.55;;;;;;;;;;5048730;28;20029;-65
2022/10/17 10:55:50;;;;;;;21.20;9.02;;;;;;;;;;5041938;28;20033;-66
2022/10/17 10:58:34;;;;;;;18.80;10.07;;;;;;;;;;5032004;28;20103;-59
2022/10/17 11:01:03;;;;;;;18.80;9.20;;;;;;;;;;5030199;28;20029;-61
2022/10/17 11:03:33;;;;;;;17.27;9.32;;;;;;;;;;5030061;28;20493;-63
2022/10/17 11:06:02;;;;;;;19.30;9.35;;;;;;;;;;5030298;28;20026;-63
2022/10/17 11:08:35;;;;;;;17.15;9.15;;;;;;;;;;5036857;28;20040;-63
2022/10/17 11:11:00;;;;;;;20.92;9.60;;;;;;;;;;5042046;28;20040;-61
2022/10/17 11:13:30;;;;;;;17.27;9.75;;;;;;;;;;5042270;28;20029;-61
2022/10/17 11:16:18;;;;;;;18.20;9.38;;;;;;;;;;5040788;28;20071;-59
2022/10/17 11:18:52;;;;;;;17.70;8.52;;;;;;;;;;5041872;28;20029;-61
2022/10/17 11:21:23;;;;;;;17.42;9.52;;;;;;;;;;5041216;28;20045;-62
2022/10/17 11:23:55;;;;;;;19.10;10.48;;;;;;;;;;5038105;28;20021;-63
2022/10/17 11:26:25;;;;;;;18.48;9.90;;;;;;;;;;5042448;28;20048;-62
2022/10/17 11:28:55;;;;;;;19.27;9.90;;;;;;;;;;5045415;28;20025;-63
2022/10/17 11:31:22;;;;;;;18.00;9.50;;;;;;;;;;5040105;28;20025;-63
2022/10/17 11:33:52;;;;;;;24.05;11.35;;;;;;;;;;5039736;28;20655;-63
2022/10/17 11:36:21;;;;;;;18.50;10.40;;;;;;;;;;5039584;28;20029;-62
2022/10/17 11:38:47;;;;;;;;;;;;;;;;;;5040067;28;20087;-63
2022/10/17 11:41:17;;;;;;;20.33;10.98;;;;;;;;;;5034805;28;19909;-63
2022/10/17 11:43:43;;;;;;;18.55;10.23;;;;;;;;;;5030367;28;20060;-63
2022/10/17 11:46:15;;;;;;;25.20;10.52;;;;;;;;;;5031367;28;20029;-63
2022/10/17 11:48:47;;;;;;;18.08;10.15;;;;;;;;;;5031377;28;20037;-63
2022/10/17 11:51:14;;;;;;;16.52;10.00;;;;;;;;;;5031082;28;20034;-64
2022/10/17 11:53:40;;;;;;;20.00;10.82;;;;;;;;;;5030618;28;20121;-63
2022/10/17 11:56:08;;;;;;;17.95;10.40;;;;;;;;;;5031075;28;20575;-63
2022/10/17 11:58:49;;;;;;;17.80;9.68;;;;;;;;;;5031384;28;20029;-63
2022/10/17 12:01:35;;;;;;;21.40;10.77;;;;;;;;;;5034022;28;20110;-64
2022/10/17 12:04:07;;;;;;;19.92;10.88;;;;;;;;;;5034377;28;20029;-63
2022/10/17 12:06:36;;;;;;;19.17;9.80;;;;;;;;;;5039635;28;20024;-64
2022/10/17 12:09:20;;;;;;;18.85;10.25;;;;;;;;;;5037756;28;20087;-64
2022/10/17 12:11:52;;;;;;;20.60;10.00;;;;;;;;;;5040290;28;20036;-64
2022/10/17 12:14:35;;;;;;;19.98;10.55;;;;;;;;;;5039930;28;20385;-64
2022/10/17 12:17:03;;;;;;;19.15;10.35;;;;;;;;;;5039234;28;20074;-62
2022/10/17 12:19:36;;;;;;;18.35;10.00;;;;;;;;;;5050333;28;20035;-64
2022/10/17 12:22:19;;;;;;;22.23;9.73;;;;;;;;;;5038947;28;20025;-63
2022/10/17 12:24:55;;;;;;;17.58;9.20;;;;;;;;;;5031273;28;20036;-65
2022/10/17 12:27:23;;;;;;;18.50;9.65;;;;;;;;;;5029654;28;20029;-64
2022/10/17 12:29:49;;;;;;;19.35;9.90;;;;;;;;;;5030690;28;20049;-64
2022/10/17 12:32:15;;;;;;;20.30;10.95;;;;;;;;;;5030159;28;20495;-63
2022/10/17 12:34:51;;;;;;;24.70;10.73;;;;;;;;;;5030709;28;20039;-64
2022/10/17 12:37:37;;;;;;;18.63;10.82;;;;;;;;;;5030895;28;20034;-62
2022/10/17 12:40:04;;;;;;;16.50;9.65;;;;;;;;;;5030550;28;20389;-61
2022/10/17 12:42:31;;;;;;;18.67;10.30;;;;;;;;;;5030715;28;20029;-63
2022/10/17 12:44:57;;;;;;;16.80;10.30;;;;;;;;;;5030921;28;20100;-64
2022/10/17 12:47:43;;;;;;;17.42;10.73;;;;;;;;;;5030851;28;20029;-63
2022/10/17 12:50:30;;;;;;;19.42;10.43;;;;;;;;;;5030844;28;20032;-64
2022/10/17 12:53:00;;;;;;;17.52;11.02;;;;;;;;;;4980663;28;20084;-64
2022/10/17 12:55:26;;;;;;;18.77;10.25;;;;;;;;;;5029910;28;20032;-63
2022/10/17 12:58:10;;;;;;;17.75;9.95;;;;;;;;;;5030640;28;20071;-64
2022/10/17 13:00:45;;;;;;;20.02;10.63;;;;;;;;;;5030555;28;20070;-64
2022/10/17 13:03:16;;;;;;;19.27;10.93;;;;;;;;;;5030424;28;20477;-64
2022/10/17 13:05:46;;;;;;;18.02;10.48;;;;;;;;;;5029912;28;20116;-64
2022/10/17 13:08:18;;;;;;;18.13;11.07;;;;;;;;;;5031623;28;20057;-64
2022/10/17 13:10:45;;;;;;;18.20;11.63;;;;;;;;;;5030913;28;20029;-63
2022/10/17 13:13:27;;;;;;;19.58;11.48;;;;;;;;;;5030395;28;20104;-61
2022/10/17 13:15:54;;;;;;;20.55;12.80;;;;;;;;;;5029473;28;20076;-63
2022/10/17 13:18:22;;;;;;;21.23;12.55;;;;;;;;;;5030750;28;20087;-63
2022/10/17 13:21:00;;;;;;;19.70;13.23;;;;;;;;;;5030850;28;20029;-64
2022/10/17 13:23:29;;;;;;;20.45;13.20;;;;;;;;;;5029990;28;20026;-64
2022/10/17 13:26:02;;;;;;;25.42;17.77;;;;;;;;;;5029083;28;20030;-64
2022/10/17 13:28:28;;;;;;;22.00;15.68;;;;;;;;;;5037343;28;20033;-63
2022/10/17 13:30:54;;;;;;;19.90;15.25;;;;;;;;;;5038689;28;20056;-63
2022/10/17 13:33:46;;;;;;;21.67;15.48;;;;;;;;;;5039836;28;20497;-63
2022/10/17 13:36:14;;;;;;;20.00;15.65;;;;;;;;;;5035822;28;20417;-63
2022/10/17 13:38:41;;;;;;;22.25;15.90;;;;;;;;;;5038920;28;20028;-63
2022/10/17 13:41:11;;;;;;;22.13;15.60;;;;;;;;;;5039118;28;20076;-63
2022/10/17 13:43:37;;;;;;;23.48;16.75;;;;;;;;;;5039015;28;20078;-66
2022/10/17 13:46:04;;;;;;;20.40;15.95;;;;;;;;;;5037672;28;20097;-63
2022/10/17 13:48:31;;;;;;;20.88;15.05;;;;;;;;;;5035378;28;20497;-63
2022/10/17 13:50:59;;;;;;;21.30;15.13;;;;;;;;;;5049321;28;20037;-64
2022/10/17 13:53:25;;;;;;;21.70;15.48;;;;;;;;;;5032929;28;20041;-63
2022/10/17 13:56:05;;;;;;;22.00;16.48;;;;;;;;;;5029728;28;20449;-64
2022/10/17 13:58:38;;;;;;;19.75;15.10;;;;;;;;;;5029819;28;20390;-64
2022/10/17 14:01:05;;;;;;;19.27;14.63;;;;;;;;;;5029793;28;20022;-64
2022/10/17 14:03:31;;;;;;;21.02;15.45;;;;;;;;;;5032396;28;20026;-65
2022/10/17 14:06:17;;;;;;;21.17;14.98;;;;;;;;;;5032712;28;20014;-62
2022/10/17 14:08:55;;;;;;;19.73;15.25;;;;;;;;;;5033262;28;20029;-62
2022/10/17 14:11:30;;;;;;;19.33;14.70;;;;;;;;;;5033467;28;20102;-61
2022/10/17 14:13:57;;;;;;;23.20;16.50;;;;;;;;;;5033249;28;20042;-62
2022/10/17 14:16:24;;;;;;;19.73;15.80;;;;;;;;;;5033181;28;20033;-63
2022/10/17 14:18:51;;;;;;;20.95;15.55;;;;;;;;;;5038628;28;20112;-63
2022/10/17 14:21:24;;;;;;;23.23;16.05;;;;;;;;;;5046321;28;20029;-58
2022/10/17 14:23:51;;;;;;;22.70;16.58;;;;;;;;;;5040686;28;20025;-64
2022/10/17 14:26:20;;;;;;;25.05;16.60;;;;;;;;;;5038199;28;20021;-62
2022/10/17 14:28:46;;;;;;;;;;;;;;;;;;5053461;28;20027;-63
2022/10/17 14:31:18;;;;;;;24.38;16.52;;;;;;;;;;5053032;28;19908;-64
2022/10/17 14:33:45;;;;;;;19.52;15.90;;;;;;;;;;5053549;28;20497;-63